• Join FlightAware (Why Join?)
  • Login
  • US Flag 
04:54PM EST


 

Airport Tracker/Info


-or-


 

Live Flight TrackerFlight Track Log ✈ SWA862 ✈ 07-Apr-2013 ✈ KRDU - KBWI

Flight Track Log - Related Links

Times and Time Zones

All times are in EDT time to prevent confusion due to time zone crossing. See the SWA862 flight status page for this flight to view local times or setup timezone preferences in your user account.

Time Position Orientation Groundspeed Altitude Reporting Facility
EDT Latitude Longitude Course Direction KTS MPH feet Rate Location/Type
08:17PM 35.8411 -78.8256 220° Southwest 148 170 2,400  Level Washington Center
08:18PM 35.8644 -78.8856 296° West 234 269 5,400 3,060 Climbing Washington Center
08:20PM 35.9497 -78.8275 29° Northeast 316 364 9,900 2,700 Climbing Washington Center
08:21PM 36.0186 -78.7431 45° Northeast 330 380 12,000 1,020 Climbing Washington Center
08:22PM 36.0856 -78.6531 47° Northeast 342 394 12,000 1,440 Level Washington Center
08:23PM 36.1611 -78.5558 46° Northeast 348 400 14,900 2,880 Climbing Washington Center
08:24PM 36.2364 -78.4608 45° Northeast 359 413 17,800 2,820 Climbing Washington Center
08:25PM 36.3156 -78.3786 40° Northeast 378 435 20,600 1,560 Climbing Washington Center
08:26PM 36.4031 -78.2992 36° Northeast 388 447 21,000 180 Climbing Washington Center
08:27PM 36.4883 -78.2142 39° Northeast 388 447 21,000  Level Washington Center
08:28PM 36.5861 -78.1269 36° Northeast 388 447 21,000  Level Washington Center
08:29PM 36.6714 -78.0417 39° Northeast 393 452 21,000  Level Washington Center
08:30PM 36.7564 -77.9614 37° Northeast 393 452 21,000  Level Washington Center
08:31PM 36.8456 -77.8811 36° Northeast 398 458 21,000  Level Washington Center
08:32PM 36.9283 -77.8108 34° Northeast 398 458 21,000  Level Washington Center
08:33PM 37.0194 -77.7328 34° Northeast 393 452 21,000  Level Washington Center
08:34PM 37.1106 -77.6572 33° Northeast 393 452 21,000  Level Washington Center
08:35PM 37.2017 -77.5789 34° Northeast 388 447 21,000  Level Washington Center
08:36PM 37.3044 -77.5344 19° North 383 441 21,000  Level Washington Center
08:37PM 37.4072 -77.4978 16° North 377 434 21,000  Level Washington Center
08:38PM 37.5100 -77.4586 17° North 377 434 21,000  Level Washington Center
08:39PM 37.6150 -77.4217 16° North 383 441 21,000  Level Washington Center
08:40PM 37.7283 -77.3797 16° North 383 441 21,000  Level Washington Center
08:41PM 37.8353 -77.3403 16° North 388 447 21,000  Level Washington Center
08:42PM 37.9414 -77.3586 352° North 379 436 21,000 -540 Level Washington Center
08:43PM 38.0456 -77.3558 North 373 429 20,000 -1,020 Descending Washington Center
08:44PM 38.1444 -77.2919 27° Northeast 373 429 19,000 -1,020 Descending Washington Center
08:45PM 38.2433 -77.2281 27° Northeast 383 441 18,000 -960 Descending Washington Center
08:46PM 38.3317 -77.1692 28° Northeast 373 429 17,100 -1,200 Descending Washington Center
08:47PM 38.4156 -77.1367 17° North 341 392 15,700 -1,560 Descending Washington Center
08:48PM 38.5031 -77.1464 355° North 313 360 14,000 -1,680 Descending Washington Center
08:49PM 38.5842 -77.1586 353° North 302 348 12,400 -1,440 Descending Washington Center
08:50PM 38.6597 -77.1336 14° North 273 314 11,200 -1,140 Descending Washington Center
08:50PM 38.6667 -77.1000 75° East 308 354 11,000 -120 Descending Potomac TRACON
08:51PM 38.6833 -77.0000 78° East 318 366 11,100 -360 Climbing Potomac TRACON
08:52PM 38.7000 -76.8667 81° East 314 361 10,300 -600 Descending Potomac TRACON
08:53PM 38.6986 -76.8258 92° East 282 325 10,100 -1,200 Descending Washington Center
08:55PM 38.7833 -76.5833 66° East 281 323 6,800 -1,320 Descending Potomac TRACON
08:56PM 38.8333 -76.5333 38° Northeast 270 311 5,800 -1,080 Descending Potomac TRACON
08:57PM 38.9000 -76.5667 339° North 255 293 4,700 -900 Descending Potomac TRACON
08:58PM 38.9667 -76.5833 349° North 258 297 4,100 -420 Descending Potomac TRACON
08:59PM 39.0000 -76.6500 303° West 233 268 4,000 -60 Descending Potomac TRACON
09:00PM 39.0333 -76.7333 297° West 238 274 4,000  Level Potomac TRACON
09:01PM 39.0667 -76.8000 303° West 210 242 4,000 -420 Level Potomac TRACON
09:02PM 39.1000 -76.8500 311° West 188 216 3,200 -1,080 Descending Potomac TRACON
09:03PM 39.1500 -76.8333 14° North 214 246 1,900 -840 Descending Potomac TRACON
09:04PM 39.1833 -76.7667 57° Northeast 178 205 1,500 -600 Descending Potomac TRACON
09:05PM 39.1833 -76.7167 90° East 144 166 800 -780 Descending Potomac TRACON
09:07PM 39.1667 -76.6667 339° North  Level FlightAware Approximate
09:14PM 39.1754 -76.6683 339° North  Level Estimated
09:15PM 39.1754 -76.6683 339° North  Level Estimated